Time;durP1;ratioP1;P1;durP2;ratioP2;P2;SDS_P1;SDS_P2;PMS_P1;PMS_P2;Temp;Humidity;BMP_temperature;BMP_pressure;BME280_temperature;BME280_humidity;BME280_pressure;Samples;Min_cycle;Max_cycle;Signal;HPM_P1;HPM_P2
2021/09/21 00:01:05;;;;;;;;;;;;;;;;;;5049002;28;19925;-65
2021/09/21 00:03:32;;;;;;;;;;;;;;;;;;5056142;28;19935;-65
2021/09/21 00:05:58;;;;;;;;;;;;;;;;;;5052327;28;19925;-65
2021/09/21 00:08:27;;;;;;;;;;;;;;;;;;5052594;28;19960;-65
2021/09/21 00:10:54;;;;;;;;;;;;;;;;;;5052241;28;19935;-65
2021/09/21 00:13:21;;;;;;;;;;;;;;;;;;5055864;28;19925;-65
2021/09/21 00:15:47;;;;;;;;;;;;;;;;;;5051978;28;19935;-65
2021/09/21 00:18:14;;;;;;;;;;;;;;;;;;5052363;28;20369;-65
2021/09/21 00:20:41;;;;;;;;;;;;;;;;;;5051769;28;20408;-65
2021/09/21 00:23:08;;;;;;;;;;;;;;;;;;5052018;28;20483;-65
2021/09/21 00:25:35;;;;;;;;;;;;;;;;;;5051536;28;19925;-65
2021/09/21 00:28:02;;;;;;;;;;;;;;;;;;5052342;28;19925;-65
2021/09/21 00:30:29;;;;;;;;;;;;;;;;;;5051587;28;20402;-65
2021/09/21 00:33:02;;;;;;;;;;;;;;;;;;5051859;28;19928;-65
2021/09/21 00:35:29;;;;;;;;;;;;;;;;;;5051709;28;19925;-65
2021/09/21 00:37:56;;;;;;;;;;;;;;;;;;5052021;28;19924;-65
2021/09/21 00:40:23;;;;;;;;;;;;;;;;;;5051507;28;19924;-65
2021/09/21 00:42:50;;;;;;;;;;;;;;;;;;5051318;28;19925;-65
2021/09/21 00:45:17;;;;;;;;;;;;;;;;;;5051649;28;20285;-65
2021/09/21 00:47:44;;;;;;;;;;;;;;;;;;5051553;28;19925;-65
2021/09/21 00:50:11;;;;;;;;;;;;;;;;;;5051607;28;19936;-65
2021/09/21 00:52:38;;;;;;;;;;;;;;;;;;5051477;28;19951;-65
2021/09/21 00:55:05;;;;;;;;;;;;;;;;;;5051903;28;20405;-65
2021/09/21 00:57:32;;;;;;;;;;;;;;;;;;5051432;28;19931;-65
2021/09/21 00:59:59;;;;;;;;;;;;;;;;;;5051446;28;19925;-65
2021/09/21 01:02:26;;;;;;;;;;;;;;;;;;5040397;28;20373;-65
2021/09/21 01:04:52;;;;;;;;;;;;;;;;;;5051160;28;19924;-65
2021/09/21 01:07:19;;;;;;;;;;;;;;;;;;5051641;28;19931;-65
2021/09/21 01:09:46;;;;;;;;;;;;;;;;;;5051033;28;20315;-65
2021/09/21 01:12:13;;;;;;;;;;;;;;;;;;5051133;28;19929;-65
2021/09/21 01:14:40;;;;;;;;;;;;;;;;;;5053892;28;20385;-65
2021/09/21 01:17:07;;;;;;;;;;;;;;;;;;5060025;28;19931;-65
2021/09/21 01:19:34;;;;;;;;;;;;;;;;;;5051134;28;19925;-66
2021/09/21 01:22:01;;;;;;;;;;;;;;;;;;5051173;28;19947;-65
2021/09/21 01:24:29;;;;;;;;;;;;;;;;;;5050990;28;19929;-65
2021/09/21 01:26:56;;;;;;;;;;;;;;;;;;5051796;28;19935;-65
2021/09/21 01:29:22;;;;;;;;;;;;;;;;;;5051429;28;20372;-65
2021/09/21 01:31:49;;;;;;;;;;;;;;;;;;5051494;28;19944;-65
2021/09/21 01:34:16;;;;;;;;;;;;;;;;;;5051110;28;19924;-65
2021/09/21 01:36:43;;;;;;;;;;;;;;;;;;5052312;28;19925;-65
2021/09/21 01:39:10;;;;;;;;;;;;;;;;;;5054921;28;19931;-65
2021/09/21 01:41:37;;;;;;;;;;;;;;;;;;5057345;28;19931;-65
2021/09/21 01:44:04;;;;;;;;;;;;;;;;;;5056764;28;19925;-65
2021/09/21 01:46:31;;;;;;;;;;;;;;;;;;5055121;28;20377;-65
2021/09/21 01:48:58;;;;;;;;;;;;;;;;;;5054661;28;19958;-65
2021/09/21 01:51:30;;;;;;;;;;;;;;;;;;5043447;28;19929;-65
2021/09/21 01:54:11;;;;;;;;;;;;;;;;;;5054801;28;20015;-64
2021/09/21 01:59:22;;;;;;;;;;;;;;;;;;5053279;28;19966;-65
2021/09/21 02:01:49;;;;;;;;;;;;;;;;;;5054489;28;19931;-65
2021/09/21 02:04:16;;;;;;;;;;;;;;;;;;5054955;28;19972;-65
2021/09/21 02:06:43;;;;;;;;;;;;;;;;;;5054787;28;19947;-65
2021/09/21 02:09:10;;;;;;;;;;;;;;;;;;5055848;28;19925;-65
2021/09/21 02:11:37;;;;;;;;;;;;;;;;;;5056558;28;19925;-65
2021/09/21 02:14:07;;;;;;;;;;;;;;;;;;5055809;28;20300;-65
2021/09/21 02:16:34;;;;;;;;;;;;;;;;;;5055348;28;20027;-65
2021/09/21 02:19:01;;;;;;;;;;;;;;;;;;5054887;28;20388;-66
2021/09/21 02:21:29;;;;;;;;;;;;;;;;;;5054611;28;20214;-66
2021/09/21 02:23:56;;;;;;;;;;;;;;;;;;5055175;28;19925;-64
2021/09/21 02:26:23;;;;;;;;;;;;;;;;;;5055070;28;20296;-65
2021/09/21 02:28:52;;;;;;;;;;;;;;;;;;5054476;28;19925;-65
2021/09/21 02:31:19;;;;;;;;;;;;;;;;;;5057783;28;20030;-65
2021/09/21 02:33:46;;;;;;;;;;;;;;;;;;5054529;28;19932;-65
2021/09/21 02:36:13;;;;;;;;;;;;;;;;;;5054559;28;19925;-65
2021/09/21 02:38:40;;;;;;;;;;;;;;;;;;5054277;28;20015;-66
2021/09/21 02:41:07;;;;;;;;;;;;;;;;;;5053807;28;20456;-65
2021/09/21 02:43:34;;;;;;;;;;;;;;;;;;5054020;28;19931;-65
2021/09/21 02:46:01;;;;;;;;;;;;;;;;;;5054560;28;19929;-65
2021/09/21 02:48:28;;;;;;;;;;;;;;;;;;5054205;28;19925;-65
2021/09/21 02:50:57;;;;;;;;;;;;;;;;;;5053836;28;19979;-64
2021/09/21 02:53:24;;;;;;;;;;;;;;;;;;5054091;28;19936;-65
2021/09/21 02:55:54;;;;;;;;;;;;;;;;;;5053842;28;19925;-65
2021/09/21 02:58:21;;;;;;;;;;;;;;;;;;5043421;28;19931;-65
2021/09/21 03:00:51;;;;;;;;;;;;;;;;;;5052072;28;19956;-65
2021/09/21 03:03:19;;;;;;;;;;;;;;;;;;5044249;28;20019;-65
2021/09/21 03:05:54;;;;;;;;;;;;;;;;;;5053646;28;19925;-65
2021/09/21 03:08:22;;;;;;;;;;;;;;;;;;5053729;28;19925;-65
2021/09/21 03:11:05;;;;;;;;;;;;;;;;;;5053188;28;19964;-65
2021/09/21 03:13:55;;;;;;;;;;;;;;;;;;5053081;28;20019;-65
2021/09/21 03:19:06;;;;;;;;;;;;;;;;;;5048226;28;19963;-65
2021/09/21 03:21:33;;;;;;;;;;;;;;;;;;5053517;28;19931;-66
2021/09/21 03:24:00;;;;;;;;;;;;;;;;;;5057246;28;20012;-65
2021/09/21 03:26:27;;;;;;;;;;;;;;;;;;5053141;28;20305;-64
2021/09/21 03:28:54;;;;;;;;;;;;;;;;;;5053060;28;19936;-65
2021/09/21 03:31:21;;;;;;;;;;;;;;;;;;5052991;28;20308;-65
2021/09/21 03:33:48;;;;;;;;;;;;;;;;;;5052688;28;19925;-65
2021/09/21 03:36:15;;;;;;;;;;;;;;;;;;5052954;28;19925;-65
2021/09/21 03:38:41;;;;;;;;;;;;;;;;;;5053097;28;19932;-65
2021/09/21 03:41:08;;;;;;;;;;;;;;;;;;5052633;28;19984;-65
2021/09/21 03:43:35;;;;;;;;;;;;;;;;;;5053145;28;19932;-64
2021/09/21 03:46:02;;;;;;;;;;;;;;;;;;5052791;28;19925;-64
2021/09/21 03:48:29;;;;;;;;;;;;;;;;;;5052950;28;19932;-65
2021/09/21 03:50:56;;;;;;;;;;;;;;;;;;5043374;28;19925;-65
2021/09/21 03:53:23;;;;;;;;;;;;;;;;;;5050692;28;20088;-65
2021/09/21 03:55:50;;;;;;;;;;;;;;;;;;5052759;28;19924;-65
2021/09/21 03:58:17;;;;;;;;;;;;;;;;;;5052628;28;19925;-65
2021/09/21 04:00:44;;;;;;;;;;;;;;;;;;5051642;28;19924;-65
2021/09/21 04:03:11;;;;;;;;;;;;;;;;;;5052691;28;19971;-65
2021/09/21 04:05:38;;;;;;;;;;;;;;;;;;5052527;28;20000;-65
2021/09/21 04:08:05;;;;;;;;;;;;;;;;;;5052472;28;19925;-65
2021/09/21 04:10:31;;;;;;;;;;;;;;;;;;5052256;28;19964;-65
2021/09/21 04:12:58;;;;;;;;;;;;;;;;;;5052490;28;20112;-65
2021/09/21 04:15:25;;;;;;;;;;;;;;;;;;5052340;28;19925;-65
2021/09/21 04:17:52;;;;;;;;;;;;;;;;;;5051927;28;20323;-65
2021/09/21 04:20:19;;;;;;;;;;;;;;;;;;5052080;28;20408;-65
2021/09/21 04:22:46;;;;;;;;;;;;;;;;;;5052164;28;19932;-65
2021/09/21 04:25:13;;;;;;;;;;;;;;;;;;5052174;28;19924;-65
2021/09/21 04:27:40;;;;;;;;;;;;;;;;;;5052197;28;19972;-65
2021/09/21 04:30:07;;;;;;;;;;;;;;;;;;5051449;28;20172;-65
2021/09/21 04:32:34;;;;;;;;;;;;;;;;;;5051861;28;20015;-65
2021/09/21 04:35:01;;;;;;;;;;;;;;;;;;5051994;28;19925;-65
2021/09/21 04:37:28;;;;;;;;;;;;;;;;;;5051774;28;20396;-65
2021/09/21 04:39:55;;;;;;;;;;;;;;;;;;5051775;28;19925;-65
2021/09/21 04:42:25;;;;;;;;;;;;;;;;;;5051722;28;19925;-65
2021/09/21 04:44:51;;;;;;;;;;;;;;;;;;5051737;28;19932;-65
2021/09/21 04:47:19;;;;;;;;;;;;;;;;;;5056013;28;19928;-65
2021/09/21 04:49:46;;;;;;;;;;;;;;;;;;5051661;28;19925;-64
2021/09/21 04:52:13;;;;;;;;;;;;;;;;;;5051498;28;20102;-67
2021/09/21 04:54:40;;;;;;;;;;;;;;;;;;5051552;28;19979;-64
2021/09/21 04:57:07;;;;;;;;;;;;;;;;;;5051407;28;20015;-64
2021/09/21 04:59:34;;;;;;;;;;;;;;;;;;5051558;28;19925;-64
2021/09/21 05:02:01;;;;;;;;;;;;;;;;;;5051565;28;19925;-64
2021/09/21 05:04:28;;;;;;;;;;;;;;;;;;5051467;28;19931;-64
2021/09/21 05:06:54;;;;;;;;;;;;;;;;;;5040379;28;20023;-64
2021/09/21 05:09:21;;;;;;;;;;;;;;;;;;5051337;28;19935;-64
2021/09/21 05:11:48;;;;;;;;;;;;;;;;;;5051424;28;19931;-64
2021/09/21 05:14:15;;;;;;;;;;;;;;;;;;5051309;28;19956;-64
2021/09/21 05:16:42;;;;;;;;;;;;;;;;;;5051477;28;19925;-64
2021/09/21 05:19:11;;;;;;;;;;;;;;;;;;5051696;28;19928;-64
2021/09/21 05:21:38;;;;;;;;;;;;;;;;;;5051626;28;20032;-65
2021/09/21 05:24:05;;;;;;;;;;;;;;;;;;5051395;28;19925;-64
2021/09/21 05:26:32;;;;;;;;;;;;;;;;;;5051491;28;19925;-65
2021/09/21 05:28:59;;;;;;;;;;;;;;;;;;5051638;28;19935;-66
2021/09/21 05:31:26;;;;;;;;;;;;;;;;;;5051103;28;19931;-64
2021/09/21 05:33:52;;;;;;;;;;;;;;;;;;5051514;28;19925;-64
2021/09/21 05:36:19;;;;;;;;;;;;;;;;;;5051169;28;19967;-64
2021/09/21 05:38:46;;;;;;;;;;;;;;;;;;5051638;28;20024;-67
2021/09/21 05:41:13;;;;;;;;;;;;;;;;;;5051705;28;19924;-64
2021/09/21 05:43:40;;;;;;;;;;;;;;;;;;5051156;28;19936;-65
2021/09/21 05:46:07;;;;;;;;;;;;;;;;;;5051458;28;19933;-65
2021/09/21 05:48:34;;;;;;;;;;;;;;;;;;5051377;28;19925;-64
2021/09/21 05:51:01;;;;;;;;;;;;;;;;;;5040792;28;19925;-64
2021/09/21 05:53:30;;;;;;;;;;;;;;;;;;5049629;28;20202;-63
2021/09/21 05:55:57;;;;;;;;;;;;;;;;;;5050859;28;19929;-63
2021/09/21 05:58:24;;;;;;;;;;;;;;;;;;5051205;28;19929;-63
2021/09/21 06:00:51;;;;;;;;;;;;;;;;;;5051709;28;19984;-63
2021/09/21 06:03:17;;;;;;;;;;;;;;;;;;5051127;28;19940;-63
2021/09/21 06:05:44;;;;;;;;;;;;;;;;;;5050640;28;19925;-63
2021/09/21 06:08:11;;;;;;;;;;;;;;;;;;5051383;28;19924;-63
2021/09/21 06:10:38;;;;;;;;;;;;;;;;;;5051451;28;19931;-63
2021/09/21 06:13:06;;;;;;;;;;;;;;;;;;5054255;28;20308;-63
2021/09/21 06:15:33;;;;;;;;;;;;;;;;;;5052136;28;19964;-63
2021/09/21 06:18:00;;;;;;;;;;;;;;;;;;5045660;28;19936;-63
2021/09/21 06:20:27;;;;;;;;;;;;;;;;;;5050625;28;19925;-63
2021/09/21 06:22:54;;;;;;;;;;;;;;;;;;5051777;28;19924;-63
2021/09/21 06:25:21;;;;;;;;;;;;;;;;;;5054239;28;19931;-63
2021/09/21 06:27:48;;;;;;;;;;;;;;;;;;5054587;28;19924;-64
2021/09/21 06:30:15;;;;;;;;;;;;;;;;;;5054184;28;19925;-64
2021/09/21 06:32:42;;;;;;;;;;;;;;;;;;5054199;28;19925;-64
2021/09/21 06:35:09;;;;;;;;;;;;;;;;;;5054008;28;20025;-64
2021/09/21 06:37:36;;;;;;;;;;;;;;;;;;5054305;28;19925;-64
2021/09/21 06:40:03;;;;;;;;;;;;;;;;;;5053931;28;19925;-64
2021/09/21 06:42:32;;;;;;;;;;;;;;;;;;5053774;28;19948;-64
2021/09/21 06:44:59;;;;;;;;;;;;;;;;;;5053511;28;19944;-64
2021/09/21 06:47:26;;;;;;;;;;;;;;;;;;5053774;28;19947;-64
2021/09/21 06:49:55;;;;;;;;;;;;;;;;;;5053374;28;20219;-64
2021/09/21 06:52:22;;;;;;;;;;;;;;;;;;5053919;28;19924;-64
2021/09/21 06:54:49;;;;;;;;;;;;;;;;;;5053462;28;19936;-64
2021/09/21 06:57:16;;;;;;;;;;;;;;;;;;5053764;28;20385;-64
2021/09/21 06:59:43;;;;;;;;;;;;;;;;;;5054000;28;19925;-64
2021/09/21 07:02:10;;;;;;;;;;;;;;;;;;5041990;28;19933;-64
2021/09/21 07:04:37;;;;;;;;;;;;;;;;;;5053456;28;19925;-64
2021/09/21 07:07:04;;;;;;;;;;;;;;;;;;5047243;28;19924;-64
2021/09/21 07:09:31;;;;;;;;;;;;;;;;;;5053553;28;19947;-64
2021/09/21 07:11:59;;;;;;;;;;;;;;;;;;5053252;28;20353;-64
2021/09/21 07:14:28;;;;;;;;;;;;;;;;;;5053274;28;19925;-64
2021/09/21 07:16:55;;;;;;;;;;;;;;;;;;5057383;28;20318;-64
2021/09/21 07:19:22;;;;;;;;;;;;;;;;;;5053078;28;19947;-64
2021/09/21 07:21:50;;;;;;;;;;;;;;;;;;5053321;28;20031;-64
2021/09/21 07:24:17;;;;;;;;;;;;;;;;;;5053049;28;19933;-65
2021/09/21 07:26:46;;;;;;;;;;;;;;;;;;5053042;28;20015;-65
2021/09/21 07:29:13;;;;;;;;;;;;;;;;;;5053412;28;19971;-64
2021/09/21 07:31:40;;;;;;;;;;;;;;;;;;5044477;28;19929;-65
2021/09/21 07:34:07;;;;;;;;;;;;;;;;;;5054172;28;20309;-65
2021/09/21 07:36:34;;;;;;;;;;;;;;;;;;5049529;28;20042;-65
2021/09/21 07:39:01;;;;;;;;;;;;;;;;;;5046748;28;20304;-65
2021/09/21 07:41:28;;;;;;;;;;;;;;;;;;5052818;28;20381;-65
2021/09/21 07:43:55;;;;;;;;;;;;;;;;;;5052653;28;19999;-64
2021/09/21 07:46:22;;;;;;;;;;;;;;;;;;5053019;28;20293;-64
2021/09/21 07:48:49;;;;;;;;;;;;;;;;;;5052971;28;19932;-64
2021/09/21 07:51:16;;;;;;;;;;;;;;;;;;5041530;28;19929;-64
2021/09/21 07:53:43;;;;;;;;;;;;;;;;;;5052880;28;19978;-64
2021/09/21 07:56:10;;;;;;;;;;;;;;;;;;5052029;28;19932;-64
2021/09/21 07:58:37;;;;;;;;;;;;;;;;;;5053250;28;20260;-64
2021/09/21 08:01:04;;;;;;;;;;;;;;;;;;5052437;28;19931;-64
2021/09/21 08:03:31;;;;;;;;;;;;;;;;;;5052752;28;19982;-64
2021/09/21 08:05:58;;;;;;;;;;;;;;;;;;5052537;28;19984;-64
2021/09/21 08:08:25;;;;;;;;;;;;;;;;;;5052541;28;19925;-64
2021/09/21 08:10:52;;;;;;;;;;;;;;;;;;5052157;28;19931;-64
2021/09/21 08:13:19;;;;;;;;;;;;;;;;;;5052408;28;19935;-64
2021/09/21 08:15:46;;;;;;;;;;;;;;;;;;5052197;28;19931;-64
2021/09/21 08:18:13;;;;;;;;;;;;;;;;;;5052751;28;20284;-64
2021/09/21 08:20:40;;;;;;;;;;;;;;;;;;5051961;28;19924;-64
2021/09/21 08:23:06;;;;;;;;;;;;;;;;;;5048376;28;19925;-64
2021/09/21 08:25:33;;;;;;;;;;;;;;;;;;5052035;28;19928;-64
2021/09/21 08:28:00;;;;;;;;;;;;;;;;;;5052302;28;20297;-64
2021/09/21 08:30:28;;;;;;;;;;;;;;;;;;5052001;28;19925;-64
2021/09/21 08:32:54;;;;;;;;;;;;;;;;;;5052202;28;19956;-64
2021/09/21 08:35:21;;;;;;;;;;;;;;;;;;5056337;28;19925;-64
2021/09/21 08:37:48;;;;;;;;;;;;;;;;;;5052472;28;19925;-64
2021/09/21 08:40:15;;;;;;;;;;;;;;;;;;5054965;28;19931;-65
2021/09/21 08:42:42;;;;;;;;;;;;;;;;;;5051563;28;19925;-66
2021/09/21 08:45:09;;;;;;;;;;;;;;;;;;5051302;28;19925;-66
2021/09/21 08:47:36;;;;;;;;;;;;;;;;;;5049352;28;19925;-64
2021/09/21 08:50:04;;;;;;;;;;;;;;;;;;5051580;28;19924;-66
2021/09/21 08:52:31;;;;;;;;;;;;;;;;;;5051208;28;19972;-65
2021/09/21 08:54:58;;;;;;;;;;;;;;;;;;5051771;28;20016;-67
2021/09/21 08:57:26;;;;;;;;;;;;;;;;;;5051591;28;19937;-67
2021/09/21 08:59:55;;;;;;;;;;;;;;;;;;5051540;28;19931;-66
2021/09/21 09:02:23;;;;;;;;;;;;;;;;;;5040401;28;19925;-66
2021/09/21 09:04:50;;;;;;;;;;;;;;;;;;5051205;28;19924;-66
2021/09/21 09:07:17;;;;;;;;;;;;;;;;;;5051291;28;19930;-65
2021/09/21 09:09:43;;;;;;;;;;;;;;;;;;5051173;28;19925;-67
2021/09/21 09:12:11;;;;;;;;;;;;;;;;;;5051308;28;19929;-67
2021/09/21 09:14:37;;;;;;;;;;;;;;;;;;5051473;28;20357;-66
2021/09/21 09:17:04;;;;;;;;;;;;;;;;;;5051180;28;19924;-64
2021/09/21 09:19:32;;;;;;;;;;;;;;;;;;5050905;28;19925;-66
2021/09/21 09:21:59;;;;;;;;;;;;;;;;;;5050934;28;19924;-65
2021/09/21 09:24:26;;;;;;;;;;;;;;;;;;5050897;28;19924;-66
2021/09/21 09:26:53;;;;;;;;;;;;;;;;;;5051358;28;19924;-65
2021/09/21 09:29:21;;;;;;;;;;;;;;;;;;5051501;28;19925;-66
2021/09/21 09:31:48;;;;;;;;;;;;;;;;;;5051215;28;19929;-66
2021/09/21 09:34:15;;;;;;;;;;;;;;;;;;5050643;28;19929;-66
2021/09/21 09:36:45;;;;;;;;;;;;;;;;;;5050960;28;19925;-65
2021/09/21 09:39:12;;;;;;;;;;;;;;;;;;5050825;28;19971;-65
2021/09/21 09:41:39;;;;;;;;;;;;;;;;;;5040812;28;19925;-66
2021/09/21 09:44:06;;;;;;;;;;;;;;;;;;5099553;22;20026;-66
2021/09/21 09:46:33;;;;;;;;;;;;;;;;;;5092675;28;19924;-66
2021/09/21 09:49:00;;;;;;;;;;;;;;;;;;5093005;28;19928;-67
2021/09/21 09:51:27;;;;;;;;;;;;;;;;;;5092049;28;19931;-67
2021/09/21 09:53:54;;;;;;;;;;;;;;;;;;5087074;28;19924;-67
2021/09/21 09:56:20;;;;;;;;;;;;;;;;;;5086470;28;19930;-67
2021/09/21 09:58:47;;;;;;;;;;;;;;;;;;5089545;28;19924;-66
2021/09/21 10:01:14;;;;;;;;;;;;;;;;;;5075385;28;19932;-67
2021/09/21 10:03:41;;;;;;;;;;;;;;;;;;5088054;28;19944;-66
2021/09/21 10:06:08;;;;;;;;;;;;;;;;;;5090220;28;19930;-67
2021/09/21 10:08:35;;;;;;;;;;;;;;;;;;5090108;28;19931;-66
2021/09/21 10:11:02;;;;;;;;;;;;;;;;;;5087405;28;19924;-67
2021/09/21 10:13:29;;;;;;;;;;;;;;;;;;5087506;28;19962;-67
2021/09/21 10:15:56;;;;;;;;;;;;;;;;;;5089745;28;19924;-67
2021/09/21 10:18:23;;;;;;;;;;;;;;;;;;5089978;28;19928;-67
2021/09/21 10:20:50;;;;;;;;;;;;;;;;;;5087755;28;19928;-67
2021/09/21 10:23:17;;;;;;;;;;;;;;;;;;5086732;28;20392;-67
2021/09/21 10:25:44;;;;;;;;;;;;;;;;;;5089678;28;19924;-67
2021/09/21 10:28:11;;;;;;;;;;;;;;;;;;5089309;28;19924;-67
2021/09/21 10:30:38;;;;;;;;;;;;;;;;;;5087947;28;19928;-67
2021/09/21 10:33:05;;;;;;;;;;;;;;;;;;5086826;28;19995;-66
2021/09/21 10:35:32;;;;;;;;;;;;;;;;;;5089408;28;19950;-67
2021/09/21 10:37:59;;;;;;;;;;;;;;;;;;5089611;28;19924;-67
2021/09/21 10:40:25;;;;;;;;;;;;;;;;;;5087654;28;19931;-66
2021/09/21 10:42:52;;;;;;;;;;;;;;;;;;5086298;28;19931;-66
2021/09/21 10:45:19;;;;;;;;;;;;;;;;;;5088318;28;19924;-66
2021/09/21 10:47:46;;;;;;;;;;;;;;;;;;5089435;28;19930;-67
2021/09/21 10:50:13;;;;;;;;;;;;;;;;;;5087729;28;19925;-67
2021/09/21 10:52:40;;;;;;;;;;;;;;;;;;5086180;28;19928;-67
2021/09/21 10:55:07;;;;;;;;;;;;;;;;;;5088441;28;19924;-67
2021/09/21 10:57:34;;;;;;;;;;;;;;;;;;5089103;28;19943;-67
2021/09/21 11:00:01;;;;;;;;;;;;;;;;;;5087813;28;19928;-67
2021/09/21 11:02:28;;;;;;;;;;;;;;;;;;5085977;28;19935;-67
2021/09/21 11:04:55;;;;;;;;;;;;;;;;;;5088740;28;19947;-67
2021/09/21 11:07:22;;;;;;;;;;;;;;;;;;5089016;28;19989;-66
2021/09/21 11:09:49;;;;;;;;;;;;;;;;;;5087490;28;20376;-67
2021/09/21 11:12:16;;;;;;;;;;;;;;;;;;5085110;28;19924;-66
2021/09/21 11:14:43;;;;;;;;;;;;;;;;;;5088022;28;19950;-66
2021/09/21 11:17:10;;;;;;;;;;;;;;;;;;5081410;28;19931;-66
2021/09/21 11:19:37;;;;;;;;;;;;;;;;;;5088137;28;19934;-67
2021/09/21 11:22:04;;;;;;;;;;;;;;;;;;5081184;28;19931;-66
2021/09/21 11:24:30;;;;;;;;;;;;;;;;;;5087656;28;19985;-68
2021/09/21 11:26:57;;;;;;;;;;;;;;;;;;5089546;28;20277;-66
2021/09/21 11:29:24;;;;;;;;;;;;;;;;;;5088371;28;19931;-66
2021/09/21 11:31:51;;;;;;;;;;;;;;;;;;5084691;28;19924;-66
2021/09/21 11:34:18;;;;;;;;;;;;;;;;;;5087427;28;19924;-66
2021/09/21 11:36:49;;;;;;;;;;;;;;;;;;5088691;28;19925;-66
2021/09/21 11:39:16;;;;;;;;;;;;;;;;;;5088221;28;19975;-68
2021/09/21 11:41:43;;;;;;;;;;;;;;;;;;5084873;28;20316;-68
2021/09/21 11:44:10;;;;;;;;;;;;;;;;;;5085806;28;19924;-67
2021/09/21 11:46:37;;;;;;;;;;;;;;;;;;5088311;28;20191;-67
2021/09/21 11:49:04;;;;;;;;;;;;;;;;;;5088305;28;19924;-67
2021/09/21 11:51:34;;;;;;;;;;;;;;;;;;5084420;28;19928;-67
2021/09/21 11:54:01;;;;;;;;;;;;;;;;;;5085792;28;19936;-67
2021/09/21 11:56:28;;;;;;;;;;;;;;;;;;5088118;28;19930;-68
2021/09/21 11:58:55;;;;;;;;;;;;;;;;;;5088353;28;19969;-68
2021/09/21 12:01:22;;;;;;;;;;;;;;;;;;5077893;28;19924;-68
2021/09/21 12:03:49;;;;;;;;;;;;;;;;;;5087408;28;19924;-67
2021/09/21 12:06:16;;;;;;;;;;;;;;;;;;5087391;28;19930;-67
2021/09/21 12:08:44;;;;;;;;;;;;;;;;;;5087543;28;19924;-66
2021/09/21 12:11:11;;;;;;;;;;;;;;;;;;5083568;28;19928;-67
2021/09/21 12:13:38;;;;;;;;;;;;;;;;;;5086054;28;19924;-67
2021/09/21 12:16:05;;;;;;;;;;;;;;;;;;5087692;28;20323;-67
2021/09/21 12:18:32;;;;;;;;;;;;;;;;;;5087418;28;19924;-68
2021/09/21 12:20:59;;;;;;;;;;;;;;;;;;5082833;28;19931;-67
2021/09/21 12:23:26;;;;;;;;;;;;;;;;;;5085668;28;20022;-67
2021/09/21 12:25:53;;;;;;;;;;;;;;;;;;5087015;28;19924;-67
2021/09/21 12:28:20;;;;;;;;;;;;;;;;;;5087385;28;19924;-67
2021/09/21 12:30:47;;;;;;;;;;;;;;;;;;5079568;28;19928;-67
2021/09/21 12:33:14;;;;;;;;;;;;;;;;;;5084902;28;20408;-67
2021/09/21 12:35:41;;;;;;;;;;;;;;;;;;5087211;28;19928;-67
2021/09/21 12:38:08;;;;;;;;;;;;;;;;;;5086735;28;19924;-67
2021/09/21 12:40:35;;;;;;;;;;;;;;;;;;5083914;28;19924;-67
2021/09/21 12:43:02;;;;;;;;;;;;;;;;;;5084844;28;19931;-67
2021/09/21 12:45:30;;;;;;;;;;;;;;;;;;5086797;28;19940;-68
2021/09/21 12:47:56;;;;;;;;;;;;;;;;;;5086638;28;19928;-68
2021/09/21 12:50:23;;;;;;;;;;;;;;;;;;5083518;28;19928;-68
2021/09/21 12:52:50;;;;;;;;;;;;;;;;;;5084123;28;20392;-68
2021/09/21 12:55:17;;;;;;;;;;;;;;;;;;5086874;28;19939;-68
2021/09/21 12:57:44;;;;;;;;;;;;;;;;;;5087016;28;19930;-66
2021/09/21 13:00:11;;;;;;;;;;;;;;;;;;5083704;28;19928;-66
2021/09/21 13:02:38;;;;;;;;;;;;;;;;;;5084230;28;19935;-66
2021/09/21 13:05:05;;;;;;;;;;;;;;;;;;5086877;28;19924;-66
2021/09/21 13:07:32;;;;;;;;;;;;;;;;;;5087211;28;19947;-66
2021/09/21 13:09:59;;;;;;;;;;;;;;;;;;5083992;28;20392;-66
2021/09/21 13:12:27;;;;;;;;;;;;;;;;;;5084043;28;19930;-66
2021/09/21 13:14:54;;;;;;;;;;;;;;;;;;5086333;28;19928;-66
2021/09/21 13:17:21;;;;;;;;;;;;;;;;;;5087624;28;19928;-66
2021/09/21 13:19:48;;;;;;;;;;;;;;;;;;5084641;28;19924;-66
2021/09/21 13:22:15;;;;;;;;;;;;;;;;;;5083793;28;19931;-66
2021/09/21 13:24:42;;;;;;;;;;;;;;;;;;5086967;28;20320;-67
2021/09/21 13:27:09;;;;;;;;;;;;;;;;;;5086332;28;19924;-66
2021/09/21 13:29:35;;;;;;;;;;;;;;;;;;5083943;28;19924;-66
2021/09/21 13:32:02;;;;;;;;;;;;;;;;;;5083373;28;19925;-68
2021/09/21 13:34:29;;;;;;;;;;;;;;;;;;5090687;28;20431;-68
2021/09/21 13:36:56;;;;;;;;;;;;;;;;;;5090629;28;19924;-67
2021/09/21 13:39:23;;;;;;;;;;;;;;;;;;5088557;28;19924;-66
2021/09/21 13:41:50;;;;;;;;;;;;;;;;;;5087358;28;19930;-66
2021/09/21 13:44:17;;;;;;;;;;;;;;;;;;5089473;28;19934;-66
2021/09/21 13:46:44;;;;;;;;;;;;;;;;;;5085812;28;19931;-66
2021/09/21 13:49:14;;;;;;;;;;;;;;;;;;5088901;28;19935;-66
2021/09/21 13:51:41;;;;;;;;;;;;;;;;;;5087065;28;19929;-66
2021/09/21 13:54:08;;;;;;;;;;;;;;;;;;5089709;28;19930;-66
2021/09/21 13:56:35;;;;;;;;;;;;;;;;;;5090144;28;19924;-66
2021/09/21 13:59:02;;;;;;;;;;;;;;;;;;5089209;28;19928;-67
2021/09/21 14:01:29;;;;;;;;;;;;;;;;;;5081300;28;19924;-66
2021/09/21 14:03:56;;;;;;;;;;;;;;;;;;5089207;28;19969;-66
2021/09/21 14:06:23;;;;;;;;;;;;;;;;;;5089913;28;20391;-66
2021/09/21 14:08:49;;;;;;;;;;;;;;;;;;5089212;28;20362;-66
2021/09/21 14:11:16;;;;;;;;;;;;;;;;;;5086732;28;19932;-66
2021/09/21 14:13:43;;;;;;;;;;;;;;;;;;5089325;28;19924;-66
2021/09/21 14:16:10;;;;;;;;;;;;;;;;;;5090002;28;20411;-66
2021/09/21 14:18:37;;;;;;;;;;;;;;;;;;5089739;28;19978;-65
2021/09/21 14:21:05;;;;;;;;;;;;;;;;;;5086201;28;20401;-65
2021/09/21 14:23:31;;;;;;;;;;;;;;;;;;5088812;28;19940;-66
2021/09/21 14:25:58;;;;;;;;;;;;;;;;;;5089465;28;20291;-66
2021/09/21 14:28:25;;;;;;;;;;;;;;;;;;5089285;28;19924;-66
2021/09/21 14:30:52;;;;;;;;;;;;;;;;;;5081561;28;19925;-66
2021/09/21 14:33:19;;;;;;;;;;;;;;;;;;5088267;28;19948;-67
2021/09/21 14:35:49;;;;;;;;;;;;;;;;;;5089304;28;20388;-68
2021/09/21 14:38:19;;;;;;;;;;;;;;;;;;5088769;28;19971;-67
2021/09/21 14:40:46;;;;;;;;;;;;;;;;;;5085718;28;20001;-67
2021/09/21 14:43:13;;;;;;;;;;;;;;;;;;5087649;28;19924;-68
2021/09/21 14:45:40;;;;;;;;;;;;;;;;;;5089015;28;19924;-67
2021/09/21 14:48:07;;;;;;;;;;;;;;;;;;5088543;28;19924;-68
2021/09/21 14:50:34;;;;;;;;;;;;;;;;;;5084942;28;19924;-67
2021/09/21 14:53:01;;;;;;;;;;;;;;;;;;5088343;28;19931;-67
2021/09/21 14:55:28;;;;;;;;;;;;;;;;;;5089120;28;19924;-67
2021/09/21 14:57:55;;;;;;;;;;;;;;;;;;5089037;28;20315;-67
2021/09/21 15:00:22;;;;;;;;;;;;;;;;;;5080160;28;19935;-67
2021/09/21 15:02:49;;;;;;;;;;;;;;;;;;5085915;28;20445;-67
2021/09/21 15:05:16;;;;;;;;;;;;;;;;;;5088708;28;20308;-66
2021/09/21 15:07:43;;;;;;;;;;;;;;;;;;5088598;28;19935;-67
2021/09/21 15:10:10;;;;;;;;;;;;;;;;;;5084432;28;19931;-67
2021/09/21 15:12:37;;;;;;;;;;;;;;;;;;5087631;28;19946;-66
2021/09/21 15:15:08;;;;;;;;;;;;;;;;;;5088724;28;20199;-66
2021/09/21 15:17:35;;;;;;;;;;;;;;;;;;5088122;28;19939;-65
2021/09/21 15:20:02;;;;;;;;;;;;;;;;;;5080376;28;19951;-66
2021/09/21 15:22:29;;;;;;;;;;;;;;;;;;5085731;28;19964;-65
2021/09/21 15:24:56;;;;;;;;;;;;;;;;;;5088507;28;19924;-66
2021/09/21 15:27:23;;;;;;;;;;;;;;;;;;5088184;28;19924;-66
2021/09/21 15:29:50;;;;;;;;;;;;;;;;;;5084413;28;19924;-66
2021/09/21 15:32:18;;;;;;;;;;;;;;;;;;5087956;28;20382;-66
2021/09/21 15:34:45;;;;;;;;;;;;;;;;;;5088306;28;19931;-66
2021/09/21 15:37:12;;;;;;;;;;;;;;;;;;5088534;28;19928;-66
2021/09/21 15:39:39;;;;;;;;;;;;;;;;;;5084494;28;19931;-66
2021/09/21 15:42:06;;;;;;;;;;;;;;;;;;5088048;28;19930;-67
2021/09/21 15:44:33;;;;;;;;;;;;;;;;;;5088375;28;19977;-68
2021/09/21 15:47:07;;;;;;;;;;;;;;;;;;5087868;28;19931;-66
2021/09/21 15:49:34;;;;;;;;;;;;;;;;;;5081072;28;19932;-67
2021/09/21 15:52:01;;;;;;;;;;;;;;;;;;5088363;28;20276;-66
2021/09/21 15:54:33;;;;;;;;;;;;;;;;;;5088047;28;19975;-67
2021/09/21 15:57:00;;;;;;;;;;;;;;;;;;5086471;28;19931;-66
2021/09/21 15:59:27;;;;;;;;;;;;;;;;;;5085037;28;20011;-68
2021/09/21 16:01:53;;;;;;;;;;;;;;;;;;5081881;28;19928;-68
2021/09/21 16:04:20;;;;;;;;;;;;;;;;;;5088582;28;19923;-67
2021/09/21 16:06:47;;;;;;;;;;;;;;;;;;5088248;28;19932;-68
2021/09/21 16:09:14;;;;;;;;;;;;;;;;;;5085448;28;19925;-68
2021/09/21 16:11:41;;;;;;;;;;;;;;;;;;5088810;28;19947;-67
2021/09/21 16:14:09;;;;;;;;;;;;;;;;;;5087874;28;19930;-68
2021/09/21 16:16:36;;;;;;;;;;;;;;;;;;5087488;28;19924;-67
2021/09/21 16:19:03;;;;;;;;;;;;;;;;;;5080374;28;19932;-68
2021/09/21 16:21:30;;;;;;;;;;;;;;;;;;5087259;28;19934;-67
2021/09/21 16:23:57;;;;;;;;;;;;;;;;;;5088863;28;19967;-68
2021/09/21 16:26:24;;;;;;;;;;;;;;;;;;5087445;28;19946;-64
2021/09/21 16:28:51;;;;;;;;;;;;;;;;;;5083408;28;19931;-68
2021/09/21 16:31:20;;;;;;;;;;;;;;;;;;5086310;28;19977;-69
2021/09/21 16:33:47;;;;;;;;;;;;;;;;;;5087726;28;20345;-67
2021/09/21 16:36:14;;;;;;;;;;;;;;;;;;5087485;28;19924;-64
2021/09/21 16:38:41;;;;;;;;;;;;;;;;;;5083751;28;20384;-66
2021/09/21 16:41:09;;;;;;;;;;;;;;;;;;5085683;28;20015;-68
2021/09/21 16:43:36;;;;;;;;;;;;;;;;;;5087093;28;20010;-68
2021/09/21 16:46:03;;;;;;;;;;;;;;;;;;5087256;28;20390;-68
2021/09/21 16:48:30;;;;;;;;;;;;;;;;;;5083141;28;19925;-66
2021/09/21 16:50:57;;;;;;;;;;;;;;;;;;5085350;28;20418;-68